sensor_id;sensor_type;location;lat;lon;timestamp;P1;durP1;ratioP1;P2;durP2;ratioP2
76405;SDS011;65234;50.044;19.258;2022-12-18T00:01:14;25.87;;;24.60;;
76405;SDS011;65234;50.044;19.258;2022-12-18T00:03:43;27.77;;;25.53;;
76405;SDS011;65234;50.044;19.258;2022-12-18T00:06:10;29.40;;;27.43;;
76405;SDS011;65234;50.044;19.258;2022-12-18T00:08:36;31.60;;;29.47;;
76405;SDS011;65234;50.044;19.258;2022-12-18T00:11:03;29.03;;;27.27;;
76405;SDS011;65234;50.044;19.258;2022-12-18T00:13:29;23.83;;;22.67;;
76405;SDS011;65234;50.044;19.258;2022-12-18T00:15:55;27.43;;;25.93;;
76405;SDS011;65234;50.044;19.258;2022-12-18T00:18:27;33.70;;;30.77;;
76405;SDS011;65234;50.044;19.258;2022-12-18T00:20:53;28.33;;;26.70;;
76405;SDS011;65234;50.044;19.258;2022-12-18T00:23:18;29.63;;;27.77;;
76405;SDS011;65234;50.044;19.258;2022-12-18T00:25:44;27.30;;;25.73;;
76405;SDS011;65234;50.044;19.258;2022-12-18T00:28:10;33.63;;;30.50;;
76405;SDS011;65234;50.044;19.258;2022-12-18T00:30:36;32.23;;;29.17;;
76405;SDS011;65234;50.044;19.258;2022-12-18T00:33:01;28.13;;;25.83;;
76405;SDS011;65234;50.044;19.258;2022-12-18T00:35:29;29.07;;;26.93;;
76405;SDS011;65234;50.044;19.258;2022-12-18T00:37:54;30.03;;;27.33;;
76405;SDS011;65234;50.044;19.258;2022-12-18T00:40:20;29.70;;;27.93;;
76405;SDS011;65234;50.044;19.258;2022-12-18T00:42:46;30.00;;;27.53;;
76405;SDS011;65234;50.044;19.258;2022-12-18T00:45:12;32.43;;;29.70;;
76405;SDS011;65234;50.044;19.258;2022-12-18T00:47:38;25.33;;;24.03;;
76405;SDS011;65234;50.044;19.258;2022-12-18T00:50:05;26.93;;;25.10;;
76405;SDS011;65234;50.044;19.258;2022-12-18T00:52:33;30.83;;;28.17;;
76405;SDS011;65234;50.044;19.258;2022-12-18T00:54:59;29.17;;;27.27;;
76405;SDS011;65234;50.044;19.258;2022-12-18T00:57:24;26.77;;;24.70;;
76405;SDS011;65234;50.044;19.258;2022-12-18T00:59:50;30.83;;;28.73;;
76405;SDS011;65234;50.044;19.258;2022-12-18T01:02:16;28.83;;;26.47;;
76405;SDS011;65234;50.044;19.258;2022-12-18T01:04:42;25.47;;;24.10;;
76405;SDS011;65234;50.044;19.258;2022-12-18T01:07:07;26.90;;;25.40;;
76405;SDS011;65234;50.044;19.258;2022-12-18T01:09:35;28.17;;;26.57;;
76405;SDS011;65234;50.044;19.258;2022-12-18T01:12:00;25.80;;;24.17;;
76405;SDS011;65234;50.044;19.258;2022-12-18T01:14:26;29.10;;;27.13;;
76405;SDS011;65234;50.044;19.258;2022-12-18T01:16:52;27.57;;;25.87;;
76405;SDS011;65234;50.044;19.258;2022-12-18T01:19:18;26.30;;;24.77;;
76405;SDS011;65234;50.044;19.258;2022-12-18T01:21:43;28.17;;;26.47;;
76405;SDS011;65234;50.044;19.258;2022-12-18T01:24:09;26.83;;;25.23;;
76405;SDS011;65234;50.044;19.258;2022-12-18T01:26:38;29.47;;;27.27;;
76405;SDS011;65234;50.044;19.258;2022-12-18T01:29:12;28.23;;;26.70;;
76405;SDS011;65234;50.044;19.258;2022-12-18T01:31:38;28.50;;;26.30;;
76405;SDS011;65234;50.044;19.258;2022-12-18T01:34:04;28.93;;;26.20;;
76405;SDS011;65234;50.044;19.258;2022-12-18T01:36:31;29.13;;;27.00;;
76405;SDS011;65234;50.044;19.258;2022-12-18T01:38:59;27.70;;;25.93;;
76405;SDS011;65234;50.044;19.258;2022-12-18T01:41:26;29.67;;;27.73;;
76405;SDS011;65234;50.044;19.258;2022-12-18T01:43:55;26.70;;;25.20;;
76405;SDS011;65234;50.044;19.258;2022-12-18T01:46:23;26.50;;;25.20;;
76405;SDS011;65234;50.044;19.258;2022-12-18T01:48:51;31.20;;;29.40;;
76405;SDS011;65234;50.044;19.258;2022-12-18T01:51:20;28.00;;;26.43;;
76405;SDS011;65234;50.044;19.258;2022-12-18T01:53:46;23.77;;;22.63;;
76405;SDS011;65234;50.044;19.258;2022-12-18T01:56:13;29.50;;;27.70;;
76405;SDS011;65234;50.044;19.258;2022-12-18T01:58:43;27.03;;;25.50;;
76405;SDS011;65234;50.044;19.258;2022-12-18T02:01:16;27.30;;;25.40;;
76405;SDS011;65234;50.044;19.258;2022-12-18T02:03:42;26.53;;;24.83;;
76405;SDS011;65234;50.044;19.258;2022-12-18T02:06:10;26.83;;;25.27;;
76405;SDS011;65234;50.044;19.258;2022-12-18T02:08:41;31.90;;;29.80;;
76405;SDS011;65234;50.044;19.258;2022-12-18T02:11:15;28.08;;;26.10;;
76405;SDS011;65234;50.044;19.258;2022-12-18T02:13:51;27.20;;;25.47;;
76405;SDS011;65234;50.044;19.258;2022-12-18T02:16:28;29.87;;;27.97;;
76405;SDS011;65234;50.044;19.258;2022-12-18T02:19:00;27.47;;;25.83;;
76405;SDS011;65234;50.044;19.258;2022-12-18T02:21:34;28.53;;;26.60;;
76405;SDS011;65234;50.044;19.258;2022-12-18T02:24:14;27.23;;;25.00;;
76405;SDS011;65234;50.044;19.258;2022-12-18T02:26:50;28.47;;;26.40;;
76405;SDS011;65234;50.044;19.258;2022-12-18T02:29:22;31.43;;;28.77;;
76405;SDS011;65234;50.044;19.258;2022-12-18T02:31:52;31.10;;;28.03;;
76405;SDS011;65234;50.044;19.258;2022-12-18T02:34:21;35.60;;;28.27;;
76405;SDS011;65234;50.044;19.258;2022-12-18T02:36:52;27.33;;;25.60;;
76405;SDS011;65234;50.044;19.258;2022-12-18T02:39:20;27.83;;;25.57;;
76405;SDS011;65234;50.044;19.258;2022-12-18T02:41:48;27.60;;;26.20;;
76405;SDS011;65234;50.044;19.258;2022-12-18T02:44:17;30.27;;;27.77;;
76405;SDS011;65234;50.044;19.258;2022-12-18T02:46:43;28.33;;;25.97;;
76405;SDS011;65234;50.044;19.258;2022-12-18T02:49:14;29.17;;;27.03;;
76405;SDS011;65234;50.044;19.258;2022-12-18T02:51:50;28.63;;;26.67;;
76405;SDS011;65234;50.044;19.258;2022-12-18T02:57:15;27.63;;;26.13;;
76405;SDS011;65234;50.044;19.258;2022-12-18T02:59:49;28.40;;;26.97;;
76405;SDS011;65234;50.044;19.258;2022-12-18T03:02:25;33.13;;;30.23;;
76405;SDS011;65234;50.044;19.258;2022-12-18T03:04:58;28.93;;;27.20;;
76405;SDS011;65234;50.044;19.258;2022-12-18T03:07:33;29.53;;;27.50;;
76405;SDS011;65234;50.044;19.258;2022-12-18T03:10:03;26.23;;;24.30;;
76405;SDS011;65234;50.044;19.258;2022-12-18T03:12:32;26.17;;;24.90;;
76405;SDS011;65234;50.044;19.258;2022-12-18T03:15:06;29.13;;;27.50;;
76405;SDS011;65234;50.044;19.258;2022-12-18T03:17:36;30.07;;;28.27;;
76405;SDS011;65234;50.044;19.258;2022-12-18T03:20:07;26.50;;;24.47;;
76405;SDS011;65234;50.044;19.258;2022-12-18T03:22:37;27.57;;;25.97;;
76405;SDS011;65234;50.044;19.258;2022-12-18T03:25:07;30.63;;;28.37;;
76405;SDS011;65234;50.044;19.258;2022-12-18T03:27:36;25.40;;;24.20;;
76405;SDS011;65234;50.044;19.258;2022-12-18T03:30:08;28.37;;;26.83;;
76405;SDS011;65234;50.044;19.258;2022-12-18T03:32:38;27.10;;;25.60;;
76405;SDS011;65234;50.044;19.258;2022-12-18T03:35:08;29.97;;;27.83;;
76405;SDS011;65234;50.044;19.258;2022-12-18T03:37:37;28.97;;;27.33;;
76405;SDS011;65234;50.044;19.258;2022-12-18T03:40:04;26.50;;;24.73;;
76405;SDS011;65234;50.044;19.258;2022-12-18T03:42:32;28.23;;;26.07;;
76405;SDS011;65234;50.044;19.258;2022-12-18T03:45:09;29.90;;;27.97;;
76405;SDS011;65234;50.044;19.258;2022-12-18T03:47:42;31.17;;;28.00;;
76405;SDS011;65234;50.044;19.258;2022-12-18T03:50:21;30.27;;;27.77;;
76405;SDS011;65234;50.044;19.258;2022-12-18T03:52:53;29.77;;;27.37;;
76405;SDS011;65234;50.044;19.258;2022-12-18T03:55:25;28.98;;;26.50;;
76405;SDS011;65234;50.044;19.258;2022-12-18T03:57:55;29.47;;;27.93;;
76405;SDS011;65234;50.044;19.258;2022-12-18T04:00:24;28.17;;;26.50;;
76405;SDS011;65234;50.044;19.258;2022-12-18T04:02:51;30.70;;;28.20;;
76405;SDS011;65234;50.044;19.258;2022-12-18T04:05:19;32.07;;;30.07;;
76405;SDS011;65234;50.044;19.258;2022-12-18T04:07:46;29.47;;;27.87;;
76405;SDS011;65234;50.044;19.258;2022-12-18T04:10:14;30.97;;;28.70;;
76405;SDS011;65234;50.044;19.258;2022-12-18T04:12:41;32.83;;;29.43;;
76405;SDS011;65234;50.044;19.258;2022-12-18T04:15:08;29.07;;;27.33;;
76405;SDS011;65234;50.044;19.258;2022-12-18T04:17:36;31.13;;;28.37;;
76405;SDS011;65234;50.044;19.258;2022-12-18T04:20:03;29.80;;;27.20;;
76405;SDS011;65234;50.044;19.258;2022-12-18T04:22:29;30.37;;;28.33;;
76405;SDS011;65234;50.044;19.258;2022-12-18T04:24:55;29.83;;;27.37;;
76405;SDS011;65234;50.044;19.258;2022-12-18T04:27:21;30.00;;;28.00;;
76405;SDS011;65234;50.044;19.258;2022-12-18T04:29:47;30.30;;;28.37;;
76405;SDS011;65234;50.044;19.258;2022-12-18T04:32:12;31.30;;;29.53;;
76405;SDS011;65234;50.044;19.258;2022-12-18T04:34:40;28.67;;;26.67;;
76405;SDS011;65234;50.044;19.258;2022-12-18T04:37:05;29.07;;;27.40;;
76405;SDS011;65234;50.044;19.258;2022-12-18T04:39:31;31.87;;;29.93;;
76405;SDS011;65234;50.044;19.258;2022-12-18T04:41:57;27.90;;;26.50;;
76405;SDS011;65234;50.044;19.258;2022-12-18T04:44:23;30.40;;;28.00;;
76405;SDS011;65234;50.044;19.258;2022-12-18T04:46:48;33.07;;;29.60;;
76405;SDS011;65234;50.044;19.258;2022-12-18T04:49:14;31.33;;;29.07;;
76405;SDS011;65234;50.044;19.258;2022-12-18T04:51:41;33.90;;;30.43;;
76405;SDS011;65234;50.044;19.258;2022-12-18T04:54:07;32.27;;;29.53;;
76405;SDS011;65234;50.044;19.258;2022-12-18T04:56:33;32.73;;;29.93;;
76405;SDS011;65234;50.044;19.258;2022-12-18T04:58:59;34.53;;;31.97;;
76405;SDS011;65234;50.044;19.258;2022-12-18T05:01:24;38.07;;;30.07;;
76405;SDS011;65234;50.044;19.258;2022-12-18T05:03:50;29.30;;;27.70;;
76405;SDS011;65234;50.044;19.258;2022-12-18T05:06:16;43.90;;;31.23;;
76405;SDS011;65234;50.044;19.258;2022-12-18T05:08:44;43.63;;;32.20;;
76405;SDS011;65234;50.044;19.258;2022-12-18T05:11:11;31.47;;;28.50;;
76405;SDS011;65234;50.044;19.258;2022-12-18T05:13:38;35.93;;;32.80;;
76405;SDS011;65234;50.044;19.258;2022-12-18T05:16:04;34.83;;;31.93;;
76405;SDS011;65234;50.044;19.258;2022-12-18T05:18:31;30.67;;;28.20;;
76405;SDS011;65234;50.044;19.258;2022-12-18T05:20:56;30.10;;;28.27;;
76405;SDS011;65234;50.044;19.258;2022-12-18T05:23:23;30.00;;;28.37;;
76405;SDS011;65234;50.044;19.258;2022-12-18T05:25:52;35.63;;;31.40;;
76405;SDS011;65234;50.044;19.258;2022-12-18T05:28:19;37.17;;;34.33;;
76405;SDS011;65234;50.044;19.258;2022-12-18T05:30:47;36.63;;;33.33;;
76405;SDS011;65234;50.044;19.258;2022-12-18T05:33:13;29.90;;;27.87;;
76405;SDS011;65234;50.044;19.258;2022-12-18T05:35:39;31.10;;;28.83;;
76405;SDS011;65234;50.044;19.258;2022-12-18T05:38:05;29.80;;;28.07;;
76405;SDS011;65234;50.044;19.258;2022-12-18T05:40:31;38.07;;;26.87;;
76405;SDS011;65234;50.044;19.258;2022-12-18T05:42:58;29.00;;;27.50;;
76405;SDS011;65234;50.044;19.258;2022-12-18T05:45:23;33.20;;;29.77;;
76405;SDS011;65234;50.044;19.258;2022-12-18T05:47:49;32.13;;;30.30;;
76405;SDS011;65234;50.044;19.258;2022-12-18T05:50:15;31.93;;;29.53;;
76405;SDS011;65234;50.044;19.258;2022-12-18T05:52:41;35.73;;;32.43;;
76405;SDS011;65234;50.044;19.258;2022-12-18T05:55:07;34.20;;;31.20;;
76405;SDS011;65234;50.044;19.258;2022-12-18T05:57:33;35.70;;;31.47;;
76405;SDS011;65234;50.044;19.258;2022-12-18T06:00:00;47.70;;;34.07;;
76405;SDS011;65234;50.044;19.258;2022-12-18T06:02:26;34.97;;;31.33;;
76405;SDS011;65234;50.044;19.258;2022-12-18T06:04:52;34.90;;;31.50;;
76405;SDS011;65234;50.044;19.258;2022-12-18T06:07:18;36.87;;;33.17;;
76405;SDS011;65234;50.044;19.258;2022-12-18T06:09:43;31.93;;;29.07;;
76405;SDS011;65234;50.044;19.258;2022-12-18T06:12:09;37.17;;;33.47;;
76405;SDS011;65234;50.044;19.258;2022-12-18T06:14:35;41.40;;;33.87;;
76405;SDS011;65234;50.044;19.258;2022-12-18T06:17:02;36.50;;;31.90;;
76405;SDS011;65234;50.044;19.258;2022-12-18T06:19:28;36.07;;;32.50;;
76405;SDS011;65234;50.044;19.258;2022-12-18T06:21:54;35.63;;;32.33;;
76405;SDS011;65234;50.044;19.258;2022-12-18T06:24:19;33.33;;;30.23;;
76405;SDS011;65234;50.044;19.258;2022-12-18T06:26:45;40.63;;;31.10;;
76405;SDS011;65234;50.044;19.258;2022-12-18T06:29:11;31.70;;;28.80;;
76405;SDS011;65234;50.044;19.258;2022-12-18T06:31:37;39.47;;;35.27;;
76405;SDS011;65234;50.044;19.258;2022-12-18T06:34:04;34.57;;;31.43;;
76405;SDS011;65234;50.044;19.258;2022-12-18T06:36:30;45.17;;;34.90;;
76405;SDS011;65234;50.044;19.258;2022-12-18T06:38:56;41.07;;;35.33;;
76405;SDS011;65234;50.044;19.258;2022-12-18T06:41:23;37.13;;;33.33;;
76405;SDS011;65234;50.044;19.258;2022-12-18T06:43:48;36.20;;;32.60;;
76405;SDS011;65234;50.044;19.258;2022-12-18T06:46:15;31.97;;;28.70;;
76405;SDS011;65234;50.044;19.258;2022-12-18T06:48:40;39.27;;;35.17;;
76405;SDS011;65234;50.044;19.258;2022-12-18T06:51:08;38.50;;;31.40;;
76405;SDS011;65234;50.044;19.258;2022-12-18T06:53:34;41.80;;;36.50;;
76405;SDS011;65234;50.044;19.258;2022-12-18T06:56:00;38.87;;;34.87;;
76405;SDS011;65234;50.044;19.258;2022-12-18T06:58:26;38.00;;;34.27;;
76405;SDS011;65234;50.044;19.258;2022-12-18T07:00:52;33.23;;;30.10;;
76405;SDS011;65234;50.044;19.258;2022-12-18T07:03:18;36.07;;;32.43;;
76405;SDS011;65234;50.044;19.258;2022-12-18T07:05:44;35.53;;;31.97;;
76405;SDS011;65234;50.044;19.258;2022-12-18T07:08:11;34.93;;;31.33;;
76405;SDS011;65234;50.044;19.258;2022-12-18T07:10:40;36.27;;;32.73;;
76405;SDS011;65234;50.044;19.258;2022-12-18T07:13:06;42.73;;;31.30;;
76405;SDS011;65234;50.044;19.258;2022-12-18T07:15:32;32.47;;;29.43;;
76405;SDS011;65234;50.044;19.258;2022-12-18T07:17:58;32.57;;;29.67;;
76405;SDS011;65234;50.044;19.258;2022-12-18T07:20:24;35.23;;;31.90;;
76405;SDS011;65234;50.044;19.258;2022-12-18T07:22:49;34.73;;;31.67;;
76405;SDS011;65234;50.044;19.258;2022-12-18T07:25:17;33.77;;;30.13;;
76405;SDS011;65234;50.044;19.258;2022-12-18T07:27:42;35.80;;;31.23;;
76405;SDS011;65234;50.044;19.258;2022-12-18T07:30:09;33.70;;;30.87;;
76405;SDS011;65234;50.044;19.258;2022-12-18T07:32:35;63.67;;;35.57;;
76405;SDS011;65234;50.044;19.258;2022-12-18T07:35:01;38.40;;;34.27;;
76405;SDS011;65234;50.044;19.258;2022-12-18T07:37:27;34.80;;;31.43;;
76405;SDS011;65234;50.044;19.258;2022-12-18T07:39:53;32.63;;;29.53;;
76405;SDS011;65234;50.044;19.258;2022-12-18T07:42:20;34.57;;;31.43;;
76405;SDS011;65234;50.044;19.258;2022-12-18T07:44:46;34.83;;;31.33;;
76405;SDS011;65234;50.044;19.258;2022-12-18T07:47:11;32.90;;;29.63;;
76405;SDS011;65234;50.044;19.258;2022-12-18T07:49:37;35.03;;;31.37;;
76405;SDS011;65234;50.044;19.258;2022-12-18T07:52:03;35.77;;;32.27;;
76405;SDS011;65234;50.044;19.258;2022-12-18T07:54:29;35.73;;;32.60;;
76405;SDS011;65234;50.044;19.258;2022-12-18T07:56:55;37.83;;;33.23;;
76405;SDS011;65234;50.044;19.258;2022-12-18T07:59:22;37.73;;;33.83;;
76405;SDS011;65234;50.044;19.258;2022-12-18T08:01:48;42.57;;;32.33;;
76405;SDS011;65234;50.044;19.258;2022-12-18T08:04:14;40.63;;;34.60;;
76405;SDS011;65234;50.044;19.258;2022-12-18T08:06:40;36.30;;;32.67;;
76405;SDS011;65234;50.044;19.258;2022-12-18T08:09:05;38.57;;;34.97;;
76405;SDS011;65234;50.044;19.258;2022-12-18T08:11:31;34.63;;;31.63;;
76405;SDS011;65234;50.044;19.258;2022-12-18T08:13:57;46.00;;;34.80;;
76405;SDS011;65234;50.044;19.258;2022-12-18T08:16:24;39.70;;;34.23;;
76405;SDS011;65234;50.044;19.258;2022-12-18T08:18:51;40.97;;;34.93;;
76405;SDS011;65234;50.044;19.258;2022-12-18T08:21:18;33.73;;;30.77;;
76405;SDS011;65234;50.044;19.258;2022-12-18T08:23:45;36.87;;;31.97;;
76405;SDS011;65234;50.044;19.258;2022-12-18T08:26:11;45.33;;;34.97;;
76405;SDS011;65234;50.044;19.258;2022-12-18T08:28:37;36.83;;;32.37;;
76405;SDS011;65234;50.044;19.258;2022-12-18T08:31:03;35.30;;;31.83;;
76405;SDS011;65234;50.044;19.258;2022-12-18T08:33:31;39.30;;;35.50;;
76405;SDS011;65234;50.044;19.258;2022-12-18T08:35:57;41.10;;;33.83;;
76405;SDS011;65234;50.044;19.258;2022-12-18T08:38:23;35.33;;;31.57;;
76405;SDS011;65234;50.044;19.258;2022-12-18T08:40:49;38.43;;;34.70;;
76405;SDS011;65234;50.044;19.258;2022-12-18T08:43:15;34.63;;;30.70;;
76405;SDS011;65234;50.044;19.258;2022-12-18T08:45:40;41.27;;;32.17;;
76405;SDS011;65234;50.044;19.258;2022-12-18T08:48:06;36.80;;;33.17;;
76405;SDS011;65234;50.044;19.258;2022-12-18T08:50:34;36.73;;;32.77;;
76405;SDS011;65234;50.044;19.258;2022-12-18T08:53:00;36.40;;;33.23;;
76405;SDS011;65234;50.044;19.258;2022-12-18T08:55:26;37.03;;;33.67;;
76405;SDS011;65234;50.044;19.258;2022-12-18T08:57:52;38.77;;;34.60;;
76405;SDS011;65234;50.044;19.258;2022-12-18T09:00:17;34.97;;;31.87;;
76405;SDS011;65234;50.044;19.258;2022-12-18T09:02:43;35.80;;;31.43;;
76405;SDS011;65234;50.044;19.258;2022-12-18T09:05:09;51.47;;;33.57;;
76405;SDS011;65234;50.044;19.258;2022-12-18T09:07:36;36.97;;;33.50;;
76405;SDS011;65234;50.044;19.258;2022-12-18T09:10:02;41.17;;;36.50;;
76405;SDS011;65234;50.044;19.258;2022-12-18T09:12:29;49.77;;;37.93;;
76405;SDS011;65234;50.044;19.258;2022-12-18T09:14:54;39.13;;;35.17;;
76405;SDS011;65234;50.044;19.258;2022-12-18T09:17:20;41.57;;;37.20;;
76405;SDS011;65234;50.044;19.258;2022-12-18T09:19:46;45.10;;;40.80;;
76405;SDS011;65234;50.044;19.258;2022-12-18T09:22:12;51.53;;;46.40;;
76405;SDS011;65234;50.044;19.258;2022-12-18T09:24:39;52.30;;;47.90;;
76405;SDS011;65234;50.044;19.258;2022-12-18T09:27:04;52.17;;;47.23;;
76405;SDS011;65234;50.044;19.258;2022-12-18T09:29:30;49.47;;;45.50;;
76405;SDS011;65234;50.044;19.258;2022-12-18T09:31:56;46.60;;;43.00;;
76405;SDS011;65234;50.044;19.258;2022-12-18T09:34:22;48.83;;;43.30;;
76405;SDS011;65234;50.044;19.258;2022-12-18T09:36:48;46.47;;;41.97;;
76405;SDS011;65234;50.044;19.258;2022-12-18T09:39:14;48.90;;;44.10;;
76405;SDS011;65234;50.044;19.258;2022-12-18T09:41:44;50.30;;;44.90;;
76405;SDS011;65234;50.044;19.258;2022-12-18T09:44:19;44.60;;;40.80;;
76405;SDS011;65234;50.044;19.258;2022-12-18T09:46:50;45.87;;;41.77;;
76405;SDS011;65234;50.044;19.258;2022-12-18T09:49:20;41.23;;;37.70;;
76405;SDS011;65234;50.044;19.258;2022-12-18T09:51:50;41.97;;;38.40;;
76405;SDS011;65234;50.044;19.258;2022-12-18T09:54:22;40.17;;;36.70;;
76405;SDS011;65234;50.044;19.258;2022-12-18T09:56:53;50.33;;;40.37;;
76405;SDS011;65234;50.044;19.258;2022-12-18T09:59:21;43.73;;;39.07;;
76405;SDS011;65234;50.044;19.258;2022-12-18T10:01:50;52.00;;;38.87;;
76405;SDS011;65234;50.044;19.258;2022-12-18T10:04:16;40.40;;;36.40;;
76405;SDS011;65234;50.044;19.258;2022-12-18T10:06:43;40.77;;;36.97;;
76405;SDS011;65234;50.044;19.258;2022-12-18T10:09:16;36.43;;;33.10;;
76405;SDS011;65234;50.044;19.258;2022-12-18T10:11:52;45.13;;;39.83;;
76405;SDS011;65234;50.044;19.258;2022-12-18T10:14:27;44.70;;;40.57;;
76405;SDS011;65234;50.044;19.258;2022-12-18T10:16:59;45.37;;;41.07;;
76405;SDS011;65234;50.044;19.258;2022-12-18T10:19:35;48.03;;;44.10;;
76405;SDS011;65234;50.044;19.258;2022-12-18T10:22:09;48.23;;;43.83;;
76405;SDS011;65234;50.044;19.258;2022-12-18T10:24:42;47.87;;;41.97;;
76405;SDS011;65234;50.044;19.258;2022-12-18T10:27:16;42.47;;;39.33;;
76405;SDS011;65234;50.044;19.258;2022-12-18T10:29:44;42.90;;;38.63;;
76405;SDS011;65234;50.044;19.258;2022-12-18T10:32:13;42.03;;;38.50;;
76405;SDS011;65234;50.044;19.258;2022-12-18T10:34:40;44.67;;;40.20;;
76405;SDS011;65234;50.044;19.258;2022-12-18T10:37:06;43.80;;;39.97;;
76405;SDS011;65234;50.044;19.258;2022-12-18T10:39:40;40.67;;;37.40;;
76405;SDS011;65234;50.044;19.258;2022-12-18T10:42:09;56.67;;;40.03;;
76405;SDS011;65234;50.044;19.258;2022-12-18T10:44:37;42.23;;;38.47;;
76405;SDS011;65234;50.044;19.258;2022-12-18T10:47:03;42.73;;;38.67;;
76405;SDS011;65234;50.044;19.258;2022-12-18T10:49:32;49.60;;;37.23;;
76405;SDS011;65234;50.044;19.258;2022-12-18T10:52:04;40.23;;;36.73;;
76405;SDS011;65234;50.044;19.258;2022-12-18T10:54:32;38.67;;;35.00;;
76405;SDS011;65234;50.044;19.258;2022-12-18T10:57:13;43.80;;;39.77;;
76405;SDS011;65234;50.044;19.258;2022-12-18T10:59:49;42.43;;;38.67;;
76405;SDS011;65234;50.044;19.258;2022-12-18T11:02:24;39.63;;;36.07;;
76405;SDS011;65234;50.044;19.258;2022-12-18T11:04:52;41.97;;;37.70;;
76405;SDS011;65234;50.044;19.258;2022-12-18T11:07:18;42.77;;;38.33;;
76405;SDS011;65234;50.044;19.258;2022-12-18T11:09:44;43.10;;;38.67;;
76405;SDS011;65234;50.044;19.258;2022-12-18T11:12:25;42.40;;;38.10;;
76405;SDS011;65234;50.044;19.258;2022-12-18T11:14:55;43.00;;;38.83;;
76405;SDS011;65234;50.044;19.258;2022-12-18T11:17:21;41.30;;;37.10;;
76405;SDS011;65234;50.044;19.258;2022-12-18T11:19:53;36.73;;;33.50;;
76405;SDS011;65234;50.044;19.258;2022-12-18T11:22:23;40.23;;;35.70;;
76405;SDS011;65234;50.044;19.258;2022-12-18T11:24:52;48.83;;;39.63;;
76405;SDS011;65234;50.044;19.258;2022-12-18T11:27:20;40.60;;;36.37;;
76405;SDS011;65234;50.044;19.258;2022-12-18T11:29:46;40.13;;;34.93;;
76405;SDS011;65234;50.044;19.258;2022-12-18T11:32:28;40.97;;;36.90;;
76405;SDS011;65234;50.044;19.258;2022-12-18T11:35:10;40.05;;;36.25;;
76405;SDS011;65234;50.044;19.258;2022-12-18T11:37:40;40.27;;;36.27;;
76405;SDS011;65234;50.044;19.258;2022-12-18T11:40:12;38.33;;;34.60;;
76405;SDS011;65234;50.044;19.258;2022-12-18T11:42:44;39.70;;;36.10;;
76405;SDS011;65234;50.044;19.258;2022-12-18T11:45:25;40.67;;;36.38;;
76405;SDS011;65234;50.044;19.258;2022-12-18T11:47:56;43.53;;;39.40;;
76405;SDS011;65234;50.044;19.258;2022-12-18T11:50:28;44.42;;;34.97;;
76405;SDS011;65234;50.044;19.258;2022-12-18T11:52:59;41.23;;;37.57;;
76405;SDS011;65234;50.044;19.258;2022-12-18T11:55:28;45.33;;;34.13;;
76405;SDS011;65234;50.044;19.258;2022-12-18T11:58:00;41.22;;;37.38;;
76405;SDS011;65234;50.044;19.258;2022-12-18T12:00:33;35.90;;;32.07;;
76405;SDS011;65234;50.044;19.258;2022-12-18T12:03:12;33.88;;;31.10;;
76405;SDS011;65234;50.044;19.258;2022-12-18T12:05:55;39.97;;;33.17;;
76405;SDS011;65234;50.044;19.258;2022-12-18T12:08:31;62.50;;;36.53;;
76405;SDS011;65234;50.044;19.258;2022-12-18T12:11:07;40.60;;;36.50;;
76405;SDS011;65234;50.044;19.258;2022-12-18T12:13:44;39.03;;;35.23;;
76405;SDS011;65234;50.044;19.258;2022-12-18T12:16:19;37.93;;;33.87;;
76405;SDS011;65234;50.044;19.258;2022-12-18T12:18:56;37.37;;;32.43;;
76405;SDS011;65234;50.044;19.258;2022-12-18T12:21:32;36.27;;;33.07;;
76405;SDS011;65234;50.044;19.258;2022-12-18T12:24:09;35.73;;;32.53;;
76405;SDS011;65234;50.044;19.258;2022-12-18T12:26:50;38.08;;;34.03;;
76405;SDS011;65234;50.044;19.258;2022-12-18T12:29:26;34.23;;;31.10;;
76405;SDS011;65234;50.044;19.258;2022-12-18T12:32:13;32.60;;;29.75;;
76405;SDS011;65234;50.044;19.258;2022-12-18T12:34:52;36.27;;;33.23;;
76405;SDS011;65234;50.044;19.258;2022-12-18T12:37:25;37.63;;;33.77;;
76405;SDS011;65234;50.044;19.258;2022-12-18T12:39:57;35.28;;;31.63;;
76405;SDS011;65234;50.044;19.258;2022-12-18T12:42:26;36.03;;;32.70;;
76405;SDS011;65234;50.044;19.258;2022-12-18T12:44:58;36.53;;;32.83;;
76405;SDS011;65234;50.044;19.258;2022-12-18T12:47:28;30.43;;;27.83;;
76405;SDS011;65234;50.044;19.258;2022-12-18T12:49:58;36.40;;;32.90;;
76405;SDS011;65234;50.044;19.258;2022-12-18T12:52:27;38.40;;;32.90;;
76405;SDS011;65234;50.044;19.258;2022-12-18T12:54:56;32.77;;;29.60;;
76405;SDS011;65234;50.044;19.258;2022-12-18T12:57:24;34.13;;;30.97;;
76405;SDS011;65234;50.044;19.258;2022-12-18T12:59:57;36.72;;;33.13;;
76405;SDS011;65234;50.044;19.258;2022-12-18T13:02:28;40.07;;;32.73;;
76405;SDS011;65234;50.044;19.258;2022-12-18T13:05:01;32.47;;;29.43;;
76405;SDS011;65234;50.044;19.258;2022-12-18T13:07:32;32.97;;;29.97;;
76405;SDS011;65234;50.044;19.258;2022-12-18T13:10:13;31.70;;;29.17;;
76405;SDS011;65234;50.044;19.258;2022-12-18T13:12:53;30.47;;;27.93;;
76405;SDS011;65234;50.044;19.258;2022-12-18T13:15:21;31.50;;;28.37;;
76405;SDS011;65234;50.044;19.258;2022-12-18T13:17:48;35.83;;;31.23;;
76405;SDS011;65234;50.044;19.258;2022-12-18T13:20:15;33.53;;;30.63;;
76405;SDS011;65234;50.044;19.258;2022-12-18T13:22:42;32.70;;;29.80;;
76405;SDS011;65234;50.044;19.258;2022-12-18T13:25:29;33.97;;;30.80;;
76405;SDS011;65234;50.044;19.258;2022-12-18T13:28:05;31.20;;;28.30;;
76405;SDS011;65234;50.044;19.258;2022-12-18T13:30:49;33.33;;;29.93;;
76405;SDS011;65234;50.044;19.258;2022-12-18T13:36:14;33.60;;;30.83;;
76405;SDS011;65234;50.044;19.258;2022-12-18T13:41:53;35.57;;;32.33;;
76405;SDS011;65234;50.044;19.258;2022-12-18T13:44:39;33.10;;;30.23;;
76405;SDS011;65234;50.044;19.258;2022-12-18T13:47:24;33.80;;;30.83;;
76405;SDS011;65234;50.044;19.258;2022-12-18T13:49:52;29.77;;;27.33;;
76405;SDS011;65234;50.044;19.258;2022-12-18T13:52:23;33.63;;;30.67;;
76405;SDS011;65234;50.044;19.258;2022-12-18T13:54:51;37.55;;;33.35;;
76405;SDS011;65234;50.044;19.258;2022-12-18T13:57:25;40.13;;;30.57;;
76405;SDS011;65234;50.044;19.258;2022-12-18T13:59:52;37.37;;;33.60;;
76405;SDS011;65234;50.044;19.258;2022-12-18T14:02:20;38.13;;;33.70;;
76405;SDS011;65234;50.044;19.258;2022-12-18T14:04:48;34.00;;;30.93;;
76405;SDS011;65234;50.044;19.258;2022-12-18T14:07:15;36.80;;;33.00;;
76405;SDS011;65234;50.044;19.258;2022-12-18T14:09:45;40.33;;;32.63;;
76405;SDS011;65234;50.044;19.258;2022-12-18T14:12:14;35.13;;;31.97;;
76405;SDS011;65234;50.044;19.258;2022-12-18T14:14:43;39.50;;;35.40;;
76405;SDS011;65234;50.044;19.258;2022-12-18T14:17:11;33.20;;;30.23;;
76405;SDS011;65234;50.044;19.258;2022-12-18T14:19:37;35.83;;;32.03;;
76405;SDS011;65234;50.044;19.258;2022-12-18T14:22:10;32.13;;;29.50;;
76405;SDS011;65234;50.044;19.258;2022-12-18T14:24:40;44.20;;;33.72;;
76405;SDS011;65234;50.044;19.258;2022-12-18T14:27:17;32.97;;;30.20;;